Time;durP1;ratioP1;P1;durP2;ratioP2;P2;SDS_P1;SDS_P2;PMS_P1;PMS_P2;Temp;Humidity;BMP_temperature;BMP_pressure;BME280_temperature;BME280_humidity;BME280_pressure;Samples;Min_cycle;Max_cycle;Signal;HPM_P1;HPM_P2
2023/10/10 00:00:23;;;;;;;11.73;7.07;;;;;;;14.34;95.70;101597.94;5017265;28;20032;-60
2023/10/10 00:02:52;;;;;;;9.82;5.78;;;;;;;14.33;96.19;101606.66;5016095;28;20025;-59
2023/10/10 00:05:18;;;;;;;10.80;6.13;;;;;;;14.30;96.06;101606.69;5022082;28;20734;-60
2023/10/10 00:07:44;;;;;;;11.18;6.13;;;;;;;14.28;96.13;101603.19;5019217;28;20037;-60
2023/10/10 00:10:13;;;;;;;10.50;6.30;;;;;;;14.27;96.47;101598.03;5014765;28;20049;-60
2023/10/10 00:12:39;;;;;;;10.82;6.40;;;;;;;14.25;96.09;101599.75;5013759;28;20472;-60
2023/10/10 00:15:07;;;;;;;13.40;6.57;;;;;;;14.24;96.45;101611.06;5016335;28;20037;-59
2023/10/10 00:17:36;;;;;;;9.88;5.38;;;;;;;14.22;96.36;101610.22;5017425;28;20081;-64
2023/10/10 00:20:24;;;;;;;7.95;5.25;;;;;;;14.21;96.21;101603.28;5019009;28;20136;-64
2023/10/10 00:22:58;;;;;;;11.68;5.85;;;;;;;14.19;96.70;101603.28;5015399;28;20037;-64
2023/10/10 00:25:30;;;;;;;9.30;5.53;;;;;;;14.16;96.48;101599.88;5016329;28;20511;-64
2023/10/10 00:27:59;;;;;;;12.77;6.68;;;;;;;14.15;96.40;101601.63;5013211;28;20428;-64
2023/10/10 00:30:33;;;;;;;9.00;5.57;;;;;;;14.13;96.92;101601.63;5012745;28;20156;-64
2023/10/10 00:33:02;;;;;;;9.93;5.78;;;;;;;14.12;96.66;101601.66;5019114;28;20047;-64
2023/10/10 00:35:29;;;;;;;9.20;5.30;;;;;;;14.11;96.53;101597.31;5019990;28;20049;-64
2023/10/10 00:37:56;;;;;;;12.10;5.80;;;;;;;14.08;96.60;101600.81;5024166;28;20041;-64
2023/10/10 00:40:29;;;;;;;13.07;6.07;;;;;;;14.05;96.79;101599.97;5020750;28;20045;-64
2023/10/10 00:42:58;;;;;;;10.80;6.35;;;;;;;14.02;97.36;101597.41;5016087;28;20034;-64
2023/10/10 00:45:24;;;;;;;9.68;6.22;;;;;;;13.98;97.39;101587.91;5020353;28;20022;-64
2023/10/10 00:47:52;;;;;;;10.80;5.78;;;;;;;13.97;97.67;101586.19;5024289;28;20033;-64
2023/10/10 00:50:20;;;;;;;11.18;6.20;;;;;;;13.94;98.08;101586.22;5019844;28;20050;-64
2023/10/10 00:52:56;;;;;;;12.50;5.97;;;;;;;13.93;98.12;101589.69;5018833;28;20045;-64
2023/10/10 00:55:27;;;;;;;11.60;6.05;;;;;;;13.90;98.25;101587.09;5019621;28;20046;-63
2023/10/10 00:57:58;;;;;;;11.98;6.82;;;;;;;13.87;99.34;101582.81;5020035;28;20068;-64
2023/10/10 01:00:25;;;;;;;14.90;6.95;;;;;;;13.85;99.96;101578.50;5013416;28;20041;-63
2023/10/10 01:02:51;;;;;;;14.98;6.60;;;;;;;13.82;100.00;101575.94;5017043;28;20115;-70
2023/10/10 01:05:23;;;;;;;10.35;6.25;;;;;;;13.79;100.00;101579.41;5016661;28;20033;-70
2023/10/10 01:07:51;;;;;;;13.70;6.95;;;;;;;13.77;100.00;101577.72;5021785;28;20068;-70
2023/10/10 01:10:17;;;;;;;13.02;6.75;;;;;;;13.73;100.00;101579.47;5018450;28;20049;-70
2023/10/10 01:12:44;;;;;;;11.93;6.97;;;;;;;13.66;100.00;101574.31;5023399;28;20494;-70
2023/10/10 01:15:24;;;;;;;17.27;6.97;;;;;;;13.61;100.00;101574.38;5025258;28;20033;-70
2023/10/10 01:17:51;;;;;;;13.38;7.13;;;;;;;13.56;100.00;101570.97;5013386;28;20021;-70
2023/10/10 01:20:20;;;;;;;12.40;7.28;;;;;;;13.50;100.00;101566.66;5021748;28;20037;-70
2023/10/10 01:22:48;;;;;;;16.27;7.50;;;;;;;13.46;100.00;101566.69;5024372;28;20036;-70
2023/10/10 01:28:03;;;;;;;12.45;7.07;;;;;;;13.33;100.00;101559.84;5017528;28;20041;-70
2023/10/10 01:33:14;;;;;;;12.85;6.40;;;;;;;13.26;100.00;101555.59;5014995;28;20150;-71
2023/10/10 01:35:44;;;;;;;12.80;7.43;;;;;;;13.24;100.00;101550.41;5014379;28;20031;-71
2023/10/10 01:38:34;;;;;;;16.25;7.57;;;;;;;13.22;100.00;101548.69;5016193;28;20077;-70
2023/10/10 01:41:15;;;;;;;12.35;7.28;;;;;;;13.17;100.00;101548.72;5013267;28;20030;-70
2023/10/10 01:43:46;;;;;;;11.57;6.93;;;;;;;13.16;100.00;101546.13;5021340;28;20148;-69
2023/10/10 01:46:19;;;;;;;12.35;7.80;;;;;;;13.14;100.00;101543.56;5009642;28;20084;-70
2023/10/10 01:48:45;;;;;;;13.50;7.55;;;;;;;13.11;100.00;101546.19;5014300;28;20045;-70
2023/10/10 01:51:15;;;;;;;11.23;6.93;;;;;;;13.08;100.00;101547.91;5017820;28;20057;-70
2023/10/10 01:53:40;;;;;;;12.43;7.78;;;;;;;13.00;100.00;101550.53;5022099;28;20037;-70
2023/10/10 01:56:12;;;;;;;11.77;7.05;;;;;;;12.98;100.00;101553.13;5014962;28;20073;-70
2023/10/10 01:58:38;;;;;;;12.57;6.90;;;;;;;12.99;100.00;101548.81;5015879;28;20432;-70
2023/10/10 02:01:31;;;;;;;14.95;6.38;;;;;;;13.01;100.00;101539.31;5019368;28;20046;-70
2023/10/10 02:03:58;;;;;;;11.25;6.03;;;;;;;13.01;100.00;101541.91;5018014;28;20041;-70
2023/10/10 02:06:25;;;;;;;13.23;6.65;;;;;;;12.99;100.00;101547.13;5017884;28;20783;-70
2023/10/10 02:08:51;;;;;;;11.38;6.50;;;;;;;12.99;100.00;101534.13;5024812;28;20487;-70
2023/10/10 02:11:20;;;;;;;14.32;6.40;;;;;;;13.00;100.00;101527.19;5019867;28;20545;-70
2023/10/10 02:13:50;;;;;;;10.52;6.10;;;;;;;12.94;100.00;101537.56;5022765;28;20038;-70
2023/10/10 02:16:17;;;;;;;16.27;6.95;;;;;;;12.91;100.00;101532.44;5021430;28;20121;-70
2023/10/10 02:18:50;;;;;;;12.48;7.03;;;;;;;12.86;100.00;101537.63;5017124;28;20036;-70
2023/10/10 02:21:17;;;;;;;11.70;6.53;;;;;;;12.82;100.00;101522.94;5024706;28;20043;-70
2023/10/10 02:23:46;;;;;;;11.75;7.05;;;;;;;12.78;100.00;101520.38;5021619;28;20055;-70
2023/10/10 02:26:35;;;;;;;10.25;6.88;;;;;;;12.76;100.00;101520.38;5014681;28;20627;-70
2023/10/10 02:29:17;;;;;;;16.80;7.28;;;;;;;12.76;100.00;101525.56;5024630;28;20041;-69
2023/10/10 02:31:46;;;;;;;14.48;6.38;;;;;;;12.76;100.00;101519.53;5014578;28;20079;-70
2023/10/10 02:34:12;;;;;;;18.02;6.40;;;;;;;12.75;100.00;101529.06;5015914;28;20040;-70
2023/10/10 02:36:40;;;;;;;10.77;6.10;;;;;;;12.74;100.00;101518.66;5018271;28;20772;-70
2023/10/10 02:41:48;;;;;;;10.48;5.95;;;;;;;12.76;100.00;101522.97;5022778;28;20041;-70
2023/10/10 02:44:26;;;;;;;12.77;7.10;;;;;;;12.80;100.00;101518.63;5016746;28;20033;-70
2023/10/10 02:46:53;;;;;;;11.60;6.75;;;;;;;12.81;100.00;101528.16;5020093;28;20905;-69
2023/10/10 02:51:57;;;;;;;12.90;7.75;;;;;;;12.77;100.00;101529.88;5025979;28;20037;-70
2023/10/10 02:57:53;;;;;;;13.07;8.10;;;;;;;12.77;100.00;101526.44;5029316;28;20124;-70
2023/10/10 02:59:50;;;;;;;12.52;6.45;;;;;;;12.78;100.00;101516.06;5006850;28;20052;-70
2023/10/10 03:02:20;;;;;;;11.98;6.85;;;;;;;12.81;100.00;101516.03;5020973;28;20041;-70
2023/10/10 03:04:55;;;;;;;13.68;8.13;;;;;;;12.86;100.00;101523.78;5006841;28;20030;-70
2023/10/10 03:07:29;;;;;;;;;;;;;;;12.84;100.00;101526.41;5011926;28;20037;-70
2023/10/10 03:12:41;;;;;;;14.50;8.65;;;;;;;12.81;100.00;101526.41;4995224;28;20684;-70
2023/10/10 03:17:52;;;;;;;14.25;7.68;;;;;;;12.81;100.00;101528.16;4998680;28;20026;-64
2023/10/10 03:20:34;;;;;;;13.98;8.05;;;;;;;12.80;100.00;101529.00;4994889;28;20046;-64
2023/10/10 03:25:47;;;;;;;17.15;8.38;;;;;;;12.76;100.00;101522.13;4996140;28;20131;-64
2023/10/10 03:33:43;;;;;;;11.93;7.35;;;;;;;12.72;100.00;101513.50;5005844;28;20033;-64
2023/10/10 05:25:12;;;;;;;12.77;7.38;;;;;;;12.62;100.00;101513.53;5014878;28;20052;-59
2023/10/10 05:27:41;;;;;;;11.75;7.38;;;;;;;12.64;100.00;101517.00;5015373;28;20095;-59
2023/10/10 05:30:23;;;;;;;12.80;7.68;;;;;;;12.66;100.00;101513.53;5014223;28;20407;-63
2023/10/10 05:33:00;;;;;;;13.00;7.28;;;;;;;12.68;100.00;101506.59;5008234;28;20061;-60
2023/10/10 05:35:32;;;;;;;12.65;7.60;;;;;;;12.68;100.00;101504.00;5010551;28;20049;-59
2023/10/10 05:38:00;;;;;;;16.10;8.70;;;;;;;12.70;100.00;101501.41;5015752;28;20119;-61
2023/10/10 05:40:26;;;;;;;14.00;7.18;;;;;;;12.70;100.00;101499.66;5016347;28;20045;-60
2023/10/10 05:42:52;;;;;;;12.90;7.55;;;;;;;12.74;100.00;101500.50;5014189;28;20624;-60
2023/10/10 05:45:18;;;;;;;13.25;7.25;;;;;;;12.76;100.00;101493.59;5012395;28;20100;-60
2023/10/10 05:47:44;;;;;;;14.05;7.07;;;;;;;12.77;100.00;101492.72;5017634;28;20729;-60
2023/10/10 05:50:10;;;;;;;11.27;7.18;;;;;;;12.79;100.00;101486.63;5022379;28;20045;-60
2023/10/10 05:52:40;;;;;;;13.88;8.02;;;;;;;12.83;100.00;101490.06;5015867;28;20069;-60
2023/10/10 05:55:06;;;;;;;11.98;7.07;;;;;;;12.87;100.00;101489.19;5014567;28;20053;-60
2023/10/10 05:57:36;;;;;;;11.80;7.63;;;;;;;12.90;100.00;101486.59;5012004;28;20756;-61
2023/10/10 06:00:10;;;;;;;12.43;7.35;;;;;;;12.92;100.00;101485.69;5010964;28;20131;-60
2023/10/10 06:02:48;;;;;;;10.10;6.35;;;;;;;12.96;100.00;101491.75;5010110;28;20034;-59
2023/10/10 06:05:17;;;;;;;11.20;6.55;;;;;;;12.98;100.00;101488.25;4993644;28;20033;-59
2023/10/10 06:07:43;;;;;;;12.20;6.95;;;;;;;12.99;100.00;101484.84;5002086;28;20063;-60
2023/10/10 06:10:18;;;;;;;11.63;6.35;;;;;;;13.03;100.00;101477.84;5009177;28;20049;-60
2023/10/10 06:12:48;;;;;;;15.65;7.28;;;;;;;13.06;100.00;101482.19;5012584;28;20033;-59
2023/10/10 06:15:17;;;;;;;11.75;7.55;;;;;;;13.12;100.00;101482.97;5011923;28;20437;-59
2023/10/10 06:17:48;;;;;;;20.23;7.72;;;;;;;13.16;100.00;101489.88;5007098;28;20025;-60
2023/10/10 06:20:16;;;;;;;14.45;7.80;;;;;;;13.19;100.00;101482.06;5011053;28;20037;-59
2023/10/10 06:22:45;;;;;;;11.60;7.53;;;;;;;13.21;100.00;101479.47;5011970;28;20045;-59
2023/10/10 06:25:17;;;;;;;12.65;7.07;;;;;;;13.24;100.00;101476.84;5011858;28;20041;-60
2023/10/10 06:27:46;;;;;;;14.63;7.05;;;;;;;13.25;100.00;101469.06;5012277;28;20045;-60
2023/10/10 06:30:17;;;;;;;11.18;7.32;;;;;;;13.30;100.00;101463.81;5011806;28;20041;-60
2023/10/10 06:32:43;;;;;;;11.02;6.63;;;;;;;13.37;100.00;101468.94;5013911;28;20025;-60
2023/10/10 06:37:43;;;;;;;16.35;8.50;;;;;;;13.57;100.00;101466.16;5010270;28;20127;-60
2023/10/10 06:40:10;;;;;;;13.57;7.47;;;;;;;13.66;100.00;101470.41;5014372;28;20053;-60
2023/10/10 06:42:36;;;;;;;12.60;7.88;;;;;;;13.75;100.00;101468.59;5013362;28;20042;-60
2023/10/10 06:45:08;;;;;;;16.75;8.60;;;;;;;13.83;100.00;101469.34;5009431;28;20535;-60
2023/10/10 06:47:47;;;;;;;16.02;7.88;;;;;;;13.92;100.00;101461.47;4993918;28;20046;-59
2023/10/10 06:50:12;;;;;;;14.18;7.72;;;;;;;14.00;100.00;101475.25;4989873;28;20076;-59
2023/10/10 06:52:43;;;;;;;15.30;8.02;;;;;;;14.12;100.00;101476.84;5006475;28;20128;-59
2023/10/10 06:55:12;;;;;;;18.52;7.75;;;;;;;14.21;100.00;101481.94;4999047;28;20053;-60
2023/10/10 06:57:38;;;;;;;12.80;7.80;;;;;;;14.32;100.00;101479.22;4992169;28;20064;-59
2023/10/10 07:00:27;;;;;;;14.05;6.95;;;;;;;14.39;100.00;101486.97;4992238;28;20512;-59
2023/10/10 07:02:54;;;;;;;12.15;7.18;;;;;;;14.46;100.00;101483.38;5011430;28;20068;-59
2023/10/10 07:05:20;;;;;;;16.13;7.07;;;;;;;14.50;100.00;101479.88;4993720;28;20030;-60
2023/10/10 07:08:12;;;;;;;13.95;6.63;;;;;;;14.56;100.00;101481.53;4994025;28;20735;-60
2023/10/10 07:10:41;;;;;;;16.83;7.40;;;;;;;14.65;100.00;101484.00;4995706;28;20030;-60
2023/10/10 07:13:11;;;;;;;13.93;6.72;;;;;;;14.71;100.00;101483.06;4998197;28;20182;-60
2023/10/10 07:15:39;;;;;;;14.07;7.47;;;;;;;14.72;100.00;101490.88;4992610;28;20049;-60
2023/10/10 07:18:09;;;;;;;15.00;7.18;;;;;;;14.82;100.00;101482.03;4995073;28;20109;-60
2023/10/10 07:23:22;;;;;;;15.23;7.50;;;;;;;14.97;100.00;101474.00;4984551;28;20168;-60
2023/10/10 07:26:01;;;;;;;12.57;7.10;;;;;;;15.07;99.67;101475.59;4994903;28;20129;-59
2023/10/10 07:28:26;;;;;;;16.08;6.90;;;;;;;15.17;99.48;101479.75;4992547;28;20026;-59
2023/10/10 07:30:55;;;;;;;13.10;7.22;;;;;;;15.22;98.68;101482.31;4994029;28;20112;-60
2023/10/10 07:33:29;;;;;;;12.63;7.28;;;;;;;15.32;98.34;101486.47;4983724;28;20050;-60
2023/10/10 07:35:55;;;;;;;22.25;7.10;;;;;;;15.41;97.58;101493.25;4993051;28;20026;-59
2023/10/10 07:38:27;;;;;;;15.52;7.07;;;;;;;15.48;97.32;101484.47;5022142;28;20037;-60
2023/10/10 07:40:53;;;;;;;13.55;6.75;;;;;;;15.54;97.59;101494.78;5021061;28;20255;-60
2023/10/10 07:43:20;;;;;;;15.95;7.18;;;;;;;15.58;97.41;101488.66;5017570;28;20045;-60
2023/10/10 07:45:47;;;;;;;12.70;6.80;;;;;;;15.64;97.49;101492.00;5019644;28;20060;-59
2023/10/10 07:50:48;;;;;;;10.60;6.30;;;;;;;15.74;95.85;101493.59;5026935;28;20044;-60
2023/10/10 07:53:14;;;;;;;11.13;6.85;;;;;;;15.78;95.53;101485.72;5025108;28;20133;-59
2023/10/10 07:55:53;;;;;;;12.93;7.25;;;;;;;15.86;95.19;101486.41;5020810;28;20030;-60
2023/10/10 07:58:23;;;;;;;12.63;6.75;;;;;;;15.90;94.18;101480.28;5021445;28;20458;-59
2023/10/10 08:00:52;;;;;;;10.50;6.07;;;;;;;15.99;93.97;101482.72;5014250;28;20049;-60
2023/10/10 08:03:21;;;;;;;12.77;6.20;;;;;;;16.03;93.75;101482.59;5016382;28;20037;-59
2023/10/10 08:05:48;;;;;;;13.30;7.10;;;;;;;16.06;92.86;101471.25;5011118;28;20049;-60
2023/10/10 08:08:17;;;;;;;11.80;6.22;;;;;;;16.13;92.80;101478.06;5017052;28;20125;-60
2023/10/10 08:10:49;;;;;;;16.55;6.32;;;;;;;16.20;91.87;101471.84;5017132;28;20053;-60
2023/10/10 08:13:15;;;;;;;14.30;6.18;;;;;;;16.29;91.54;101471.66;5013242;28;20041;-60
2023/10/10 08:15:51;;;;;;;13.63;5.85;;;;;;;16.37;91.24;101472.38;5015406;28;20405;-60
2023/10/10 08:23:30;;;;;;;10.63;5.57;;;;;;;16.67;89.28;101455.19;5015505;28;20917;-60
2023/10/10 08:25:56;;;;;;;12.32;6.53;;;;;;;16.76;88.98;101453.22;5014512;28;20084;-60
2023/10/10 08:28:22;;;;;;;13.35;6.65;;;;;;;16.82;87.97;101447.03;5016860;28;20128;-60
2023/10/10 08:30:52;;;;;;;14.25;5.90;;;;;;;16.89;88.40;101450.38;5013308;28;20106;-59
2023/10/10 08:33:18;;;;;;;12.48;5.85;;;;;;;16.93;87.70;101446.78;5016925;28;20697;-60
2023/10/10 08:35:45;;;;;;;10.73;6.35;;;;;;;17.02;87.34;101441.34;5015099;28;20030;-60
2023/10/10 08:38:20;;;;;;;15.13;6.05;;;;;;;17.10;87.08;101439.38;5020260;28;20037;-60
2023/10/10 08:40:57;;;;;;;10.18;5.63;;;;;;;17.16;87.06;101434.88;5015637;28;20112;-60
2023/10/10 08:43:28;;;;;;;10.55;6.05;;;;;;;17.24;86.62;101432.97;5016373;28;20104;-60
2023/10/10 08:45:56;;;;;;;11.55;6.10;;;;;;;17.31;85.47;101426.66;5021413;28;20030;-60
2023/10/10 08:48:26;;;;;;;21.73;6.03;;;;;;;17.43;85.80;101435.94;5011699;28;20025;-60
2023/10/10 08:50:55;;;;;;;9.32;5.75;;;;;;;17.55;85.46;101427.78;5016050;28;20490;-61
2023/10/10 08:53:22;;;;;;;13.13;6.38;;;;;;;17.66;85.37;101427.50;5015100;28;20044;-60
2023/10/10 08:55:56;;;;;;;10.30;5.50;;;;;;;17.77;84.78;101425.47;4996941;28;20057;-60
2023/10/10 08:58:22;;;;;;;12.70;6.60;;;;;;;17.89;83.68;101420.78;4991844;28;20046;-60
2023/10/10 09:00:48;;;;;;;13.40;5.78;;;;;;;18.00;83.37;101411.75;4994564;28;20042;-60
2023/10/10 09:03:14;;;;;;;11.48;6.45;;;;;;;18.08;83.93;101421.09;4995179;28;20042;-59
2023/10/10 09:05:39;;;;;;;12.75;5.93;;;;;;;18.17;83.50;101415.59;4997432;28;20032;-60
2023/10/10 09:08:07;;;;;;;11.25;6.15;;;;;;;18.28;82.12;101404.84;4993925;28;20092;-60
2023/10/10 09:10:42;;;;;;;9.85;6.05;;;;;;;18.43;81.12;101404.38;4992728;28;20084;-59
2023/10/10 09:13:07;;;;;;;11.07;6.30;;;;;;;18.52;81.42;101399.69;4991663;28;20135;-60
2023/10/10 09:15:36;;;;;;;12.60;5.65;;;;;;;18.63;80.78;101395.91;4996147;28;20664;-60
2023/10/10 09:18:14;;;;;;;13.07;5.55;;;;;;;18.78;80.57;101395.41;4993304;28;20044;-60
2023/10/10 09:20:39;;;;;;;13.82;6.32;;;;;;;18.83;80.47;101389.13;4994726;28;20049;-59
2023/10/10 09:23:21;;;;;;;11.32;5.60;;;;;;;18.94;80.88;101394.03;4991947;28;20035;-59
2023/10/10 09:26:09;;;;;;;11.68;5.90;;;;;;;19.01;80.34;101396.41;4995400;28;20026;-60
2023/10/10 09:28:58;;;;;;;11.13;5.70;;;;;;;19.12;79.71;101392.59;4991736;28;20535;-60
2023/10/10 09:31:26;;;;;;;10.10;5.25;;;;;;;19.23;78.92;101385.22;4997091;28;20042;-60
2023/10/10 09:33:55;;;;;;;9.43;5.47;;;;;;;19.32;78.73;101377.03;4994719;28;20284;-60
2023/10/10 09:36:26;;;;;;;12.70;5.15;;;;;;;19.39;77.18;101370.66;4995021;28;20060;-60
2023/10/10 09:39:08;;;;;;;9.73;5.78;;;;;;;19.45;77.78;101387.03;4990437;28;20034;-60
2023/10/10 09:49:51;;;;;;;11.15;5.35;;;;;;;19.90;75.64;101357.47;4991461;28;20136;-60
2023/10/10 09:57:42;;;;;;;11.77;5.68;;;;;;;20.15;76.18;101366.13;4994050;28;20034;-60
2023/10/10 10:00:15;;;;;;;12.30;5.05;;;;;;;20.16;76.92;101380.94;4997461;28;20040;-60
2023/10/10 10:02:49;;;;;;;11.32;5.45;;;;;;;20.20;76.12;101372.06;4995970;28;20964;-60
2023/10/10 10:05:18;;;;;;;9.35;4.82;;;;;;;20.24;75.64;101363.16;4992761;28;20038;-60
2023/10/10 10:07:59;;;;;;;10.70;5.43;;;;;;;20.34;75.78;101368.88;4991672;28;20038;-60
2023/10/10 10:11:09;;;;;;;9.40;4.88;;;;;;;20.36;74.03;101349.56;4994842;28;20092;-60
2023/10/10 10:13:48;;;;;;;11.00;5.50;;;;;;;20.41;73.31;101339.72;4990744;28;20056;-60
2023/10/10 10:16:32;;;;;;;13.88;6.18;;;;;;;20.52;73.82;101353.25;4992206;28;20125;-60
2023/10/10 10:19:19;;;;;;;10.90;5.22;;;;;;;20.63;73.38;101353.69;4991157;28;20041;-60
2023/10/10 10:24:45;;;;;;;11.25;5.35;;;;;;;20.81;71.44;101325.81;4980896;28;20064;-60
2023/10/10 10:27:35;;;;;;;10.90;4.95;;;;;;;20.88;72.54;101345.69;4992573;28;20160;-60
2023/10/10 10:30:38;;;;;;;14.52;5.40;;;;;;;20.96;72.44;101337.47;4985461;28;20849;-60
2023/10/10 10:32:59;;;;;;;9.50;4.65;;;;;;;20.98;71.29;101322.50;5009237;28;20045;-60
2023/10/10 10:35:44;;;;;;;9.63;5.72;;;;;;;21.04;70.12;101309.97;4989278;28;20145;-60
2023/10/10 10:38:09;;;;;;;9.60;5.15;;;;;;;21.14;70.51;101323.53;4987405;28;20038;-60
2023/10/10 10:43:16;;;;;;;12.75;5.03;;;;;;;21.24;69.58;101314.34;4988605;28;20533;-60
2023/10/10 10:45:51;;;;;;;11.00;5.35;;;;;;;21.24;69.01;101317.84;4995299;28;20048;-60
2023/10/10 10:48:34;;;;;;;10.95;4.88;;;;;;;21.27;69.25;101309.81;4996647;28;20077;-60
2023/10/10 10:51:23;;;;;;;10.82;4.70;;;;;;;21.27;68.73;101301.06;4991691;28;20025;-60
2023/10/10 10:54:00;;;;;;;11.45;5.07;;;;;;;21.39;67.37;101270.75;4996516;28;20121;-60
2023/10/10 10:59:12;;;;;;;11.77;5.15;;;;;;;21.45;67.62;101281.84;5015506;28;20036;-60
2023/10/10 11:01:46;;;;;;;8.13;4.50;;;;;;;21.46;67.85;101282.72;4999996;28;20501;-60
2023/10/10 11:04:24;;;;;;;15.60;5.30;;;;;;;21.44;68.68;101297.69;4996362;28;20046;-60
2023/10/10 11:06:52;;;;;;;9.60;5.07;;;;;;;21.45;69.03;101309.94;4989992;28;20030;-60
2023/10/10 11:09:32;;;;;;;10.48;4.32;;;;;;;21.49;68.06;101279.94;4995492;28;20030;-60
2023/10/10 11:12:03;;;;;;;12.20;5.38;;;;;;;21.57;67.15;101257.66;4993501;28;20421;-69
2023/10/10 11:14:30;;;;;;;11.02;5.40;;;;;;;21.63;67.20;101265.28;4996613;28;20038;-70
2023/10/10 11:16:56;;;;;;;10.82;4.32;;;;;;;21.68;67.23;101262.41;4997751;28;20046;-69
2023/10/10 11:21:48;;;;;;;9.38;4.20;;;;;;;21.77;66.22;101251.47;5001537;28;20050;-69
2023/10/10 11:24:24;;;;;;;7.03;4.10;;;;;;;21.78;67.30;101268.97;4995974;28;20042;-70
2023/10/10 11:29:47;;;;;;;9.02;4.38;;;;;;;21.85;65.27;101228.25;5014788;28;20140;-70
2023/10/10 11:32:24;;;;;;;9.60;4.75;;;;;;;21.94;66.15;101248.06;5018100;28;20079;-69
2023/10/10 11:34:51;;;;;;;7.50;4.30;;;;;;;22.09;66.01;101242.88;5016605;28;20037;-70
2023/10/10 11:37:23;;;;;;;10.25;4.78;;;;;;;22.13;65.66;101240.97;5015708;28;20033;-69
2023/10/10 11:39:57;;;;;;;10.65;4.85;;;;;;;22.20;65.35;101232.69;5021462;28;20072;-69
2023/10/10 11:42:35;;;;;;;11.73;5.05;;;;;;;22.25;65.40;101235.94;5013702;28;20041;-62
2023/10/10 11:45:05;;;;;;;8.65;4.07;;;;;;;22.28;66.32;101253.38;4999319;28;20080;-62
2023/10/10 11:47:42;;;;;;;11.20;4.22;;;;;;;22.31;66.76;101263.78;5018538;28;20044;-63
2023/10/10 11:50:11;;;;;;;10.35;4.40;;;;;;;22.42;64.49;101206.16;5002818;28;20099;-64
2023/10/10 11:52:51;;;;;;;9.68;4.40;;;;;;;22.52;64.44;101215.31;5013197;28;20042;-60
2023/10/10 11:55:20;;;;;;;8.43;4.55;;;;;;;22.56;64.57;101210.75;4997176;28;20181;-60
2023/10/10 11:57:48;;;;;;;9.50;4.60;;;;;;;22.64;63.28;101190.13;4996197;28;20046;-60
2023/10/10 12:00:18;;;;;;;8.52;4.65;;;;;;;22.71;64.18;101209.97;4994790;28;20077;-60
2023/10/10 12:02:48;;;;;;;11.40;4.53;;;;;;;22.76;63.52;101190.34;4998790;28;20037;-60
2023/10/10 12:05:37;;;;;;;8.60;5.03;;;;;;;22.76;64.36;101210.59;4999750;28;20030;-60
2023/10/10 12:08:06;;;;;;;8.95;4.15;;;;;;;22.85;62.76;101168.78;4997298;28;20061;-60
2023/10/10 12:10:47;;;;;;;10.90;4.55;;;;;;;22.86;62.65;101164.34;5012582;28;21045;-60
2023/10/10 12:16:11;;;;;;;13.13;4.55;;;;;;;22.89;62.98;101177.34;5016429;28;20046;-60
2023/10/10 12:18:44;;;;;;;6.35;3.92;;;;;;;23.01;60.72;101137.16;5021517;28;20164;-60
2023/10/10 12:21:13;;;;;;;10.90;4.47;;;;;;;23.08;61.08;101146.47;5018554;28;20033;-60
2023/10/10 12:23:39;;;;;;;12.15;4.63;;;;;;;23.13;61.55;101162.88;5022260;28;20029;-60
2023/10/10 12:26:04;;;;;;;11.88;4.28;;;;;;;23.22;59.29;101114.06;5023407;28;20044;-60
2023/10/10 12:28:30;;;;;;;9.90;4.43;;;;;;;23.20;60.49;101139.69;5015652;28;20045;-61
2023/10/10 12:31:03;;;;;;;8.63;4.38;;;;;;;23.26;59.07;101116.47;5013619;28;20033;-61
2023/10/10 12:33:29;;;;;;;10.90;3.88;;;;;;;23.31;59.40;101117.06;5011762;28;20480;-65
2023/10/10 12:35:56;;;;;;;6.13;4.18;;;;;;;23.34;59.78;101121.31;4987563;28;20065;-60
2023/10/10 12:38:22;;;;;;;7.80;4.00;;;;;;;23.38;59.50;101121.09;4996823;28;20042;-60
2023/10/10 12:40:52;;;;;;;8.70;3.70;;;;;;;23.51;57.52;101081.66;4990645;28;20049;-60
2023/10/10 12:43:18;;;;;;;11.00;4.53;;;;;;;23.60;57.31;101081.13;4990085;28;20030;-60
2023/10/10 12:45:46;;;;;;;7.63;3.60;;;;;;;23.57;57.54;101101.59;4993206;28;20719;-60
2023/10/10 12:48:14;;;;;;;10.18;4.38;;;;;;;23.51;58.21;101100.16;4994241;28;20042;-60
2023/10/10 12:50:46;;;;;;;7.95;4.15;;;;;;;23.46;59.06;101118.00;4994789;28;20550;-59
2023/10/10 12:53:15;;;;;;;12.88;5.03;;;;;;;23.42;58.50;101113.84;5020127;28;20211;-60
2023/10/10 12:58:27;;;;;;;8.25;4.32;;;;;;;23.55;58.75;101103.44;5000014;28;20468;-60
2023/10/10 13:00:57;;;;;;;10.07;4.18;;;;;;;23.59;59.58;101131.38;4991702;28;20038;-60
2023/10/10 13:03:27;;;;;;;7.97;3.90;;;;;;;23.58;59.74;101124.38;4997065;28;20041;-70
2023/10/10 13:06:04;;;;;;;7.30;3.80;;;;;;;23.65;58.24;101097.56;4990972;28;20030;-60
2023/10/10 13:08:55;;;;;;;7.43;4.50;;;;;;;23.76;57.95;101096.94;4993540;28;20599;-63
2023/10/10 13:11:32;;;;;;;7.20;4.53;;;;;;;23.84;57.91;101092.06;4996432;28;20128;-62
2023/10/10 13:14:08;;;;;;;7.93;3.97;;;;;;;23.88;58.06;101090.94;4991010;28;20049;-63
2023/10/10 13:19:12;;;;;;;9.18;4.30;;;;;;;24.05;56.61;101063.56;4992953;28;20030;-62
2023/10/10 13:21:39;;;;;;;10.60;4.68;;;;;;;24.08;56.68;101066.88;4989691;28;20046;-63
2023/10/10 13:24:09;;;;;;;11.00;4.97;;;;;;;24.07;57.51;101088.97;4995445;28;20153;-62
2023/10/10 13:26:39;;;;;;;9.50;4.00;;;;;;;24.09;57.33;101079.16;5011519;28;20112;-63
2023/10/10 13:29:05;;;;;;;8.30;4.45;;;;;;;24.16;55.97;101062.03;5013386;28;20052;-63
2023/10/10 13:31:31;;;;;;;12.32;4.40;;;;;;;24.16;56.01;101058.53;5017581;28;20080;-64
2023/10/10 13:33:57;;;;;;;6.03;3.65;;;;;;;24.14;56.05;101055.97;5023557;28;20119;-64
2023/10/10 13:36:23;;;;;;;10.10;3.83;;;;;;;24.08;57.49;101088.00;5014140;28;20039;-64
2023/10/10 13:38:50;;;;;;;8.60;4.57;;;;;;;24.12;57.54;101088.69;5019539;28;20055;-64
2023/10/10 13:41:18;;;;;;;9.45;4.28;;;;;;;24.05;58.75;101117.25;5015619;28;20059;-64
2023/10/10 13:43:48;;;;;;;6.72;3.85;;;;;;;24.07;58.08;101102.19;5022087;28;20523;-64
2023/10/10 13:46:14;;;;;;;11.18;4.47;;;;;;;24.03;58.39;101098.00;5021200;28;20045;-64
2023/10/10 13:48:40;;;;;;;8.88;4.45;;;;;;;24.05;58.02;101093.47;5017590;28;20038;-63
2023/10/10 13:51:09;;;;;;;9.52;3.83;;;;;;;24.02;58.78;101098.13;5010679;28;20037;-63
2023/10/10 13:53:39;;;;;;;8.00;4.78;;;;;;;24.10;57.18;101072.94;5014573;28;20408;-60
2023/10/10 13:56:05;;;;;;;9.80;4.70;;;;;;;24.11;57.24;101077.28;5014586;28;20037;-60
2023/10/10 13:58:31;;;;;;;12.15;4.40;;;;;;;24.17;56.29;101058.41;5021827;28;20823;-60
2023/10/10 14:01:13;;;;;;;8.25;4.00;;;;;;;24.10;56.97;101069.44;5018698;28;20106;-60
2023/10/10 14:03:45;;;;;;;9.00;4.60;;;;;;;24.00;58.38;101100.84;5012639;28;20515;-62
2023/10/10 14:06:14;;;;;;;12.02;4.45;;;;;;;24.16;55.42;101030.31;5015377;28;20057;-63
2023/10/10 14:08:44;;;;;;;12.35;4.38;;;;;;;24.16;55.79;101040.03;5021877;28;20021;-62
2023/10/10 14:11:11;;;;;;;10.35;4.93;;;;;;;24.16;56.09;101048.81;5018062;28;20144;-62
2023/10/10 14:13:37;;;;;;;8.40;4.20;;;;;;;24.11;56.33;101052.66;5009883;28;20029;-62
2023/10/10 14:16:02;;;;;;;5.95;3.55;;;;;;;24.03;57.33;101076.03;5017417;28;20068;-62
2023/10/10 14:18:32;;;;;;;10.13;4.43;;;;;;;24.01;56.29;101062.94;5020050;28;20780;-62
2023/10/10 14:21:08;;;;;;;8.52;4.63;;;;;;;24.13;56.76;101056.06;5014863;28;20020;-62
2023/10/10 14:23:37;;;;;;;9.48;4.45;;;;;;;24.04;58.11;101091.81;4986548;28;20161;-62
2023/10/10 14:26:12;;;;;;;12.02;4.22;;;;;;;24.02;57.97;101079.63;5012467;28;20029;-62
2023/10/10 14:28:41;;;;;;;13.18;4.72;;;;;;;24.05;58.46;101076.78;5016502;28;20064;-62
2023/10/10 14:31:12;;;;;;;8.70;3.55;;;;;;;24.09;57.92;101071.25;5004119;28;20156;-62
2023/10/10 14:33:41;;;;;;;8.65;4.47;;;;;;;24.02;59.07;101092.84;4991636;28;20123;-63
2023/10/10 14:36:11;;;;;;;10.00;4.05;;;;;;;23.93;58.66;101091.53;4995802;28;20049;-62
2023/10/10 14:38:37;;;;;;;11.27;3.97;;;;;;;23.83;59.43;101095.66;4994003;28;20275;-62